createdAt,value
2022-11-05T08:29:07.854Z,64.09
2022-11-05T08:31:37.706Z,64.26
2022-11-05T08:34:05.784Z,64.02
2022-11-05T08:36:36.264Z,64.03
2022-11-05T08:39:08.406Z,63.96
2022-11-05T08:41:40.529Z,63.36
2022-11-05T08:44:14.344Z,63.55
2022-11-05T08:46:42.709Z,63.16
2022-11-05T08:49:18.359Z,63.29
2022-11-05T08:51:46.536Z,63.41
2022-11-05T08:54:15.135Z,63.39
2022-11-05T09:02:19.474Z,63.60
2022-11-05T09:04:53.698Z,63.34
2022-11-05T09:07:30.739Z,63.98
2022-11-05T09:10:00.039Z,64.26
2022-11-05T09:12:37.477Z,63.90
2022-11-05T09:18:03.226Z,64.10
2022-11-05T09:20:38.543Z,63.93
2022-11-05T09:23:08.643Z,63.96
2022-11-05T09:25:41.073Z,63.79
2022-11-05T09:28:17.682Z,63.69
2022-11-05T09:30:51.140Z,63.85
2022-11-05T09:33:34.955Z,64.17
2022-11-05T09:36:03.028Z,63.88
2022-11-05T09:38:35.449Z,63.91
2022-11-05T09:43:53.044Z,63.98
2022-11-05T09:46:24.913Z,64.11
2022-11-05T09:49:02.045Z,64.34
2022-11-05T09:51:30.585Z,64.36
2022-11-05T09:59:42.574Z,63.91
2022-11-05T10:07:33.750Z,64.02
2022-11-05T10:10:06.047Z,64.07
2022-11-05T10:12:40.654Z,63.99
2022-11-05T10:15:16.621Z,63.80
2022-11-05T10:17:51.004Z,63.55
2022-11-05T10:20:28.603Z,63.28
2022-11-05T10:23:05.105Z,63.68
2022-11-05T10:25:41.181Z,63.71
2022-11-05T10:28:16.232Z,63.36
2022-11-05T10:30:53.232Z,63.18
2022-11-05T10:33:32.162Z,63.16
2022-11-05T10:36:05.859Z,63.54
2022-11-05T10:38:37.927Z,63.96
2022-11-05T10:41:31.843Z,63.65
2022-11-05T10:44:16.059Z,63.36
2022-11-05T10:46:55.905Z,63.16
2022-11-05T10:49:42.384Z,63.74
2022-11-05T10:52:21.339Z,63.04
2022-11-05T10:54:53.445Z,62.61
2022-11-05T10:57:31.020Z,62.72
2022-11-05T11:00:25.278Z,62.04
2022-11-05T11:02:55.892Z,61.31
2022-11-05T11:05:27.064Z,62.07
2022-11-05T11:07:59.110Z,61.28
2022-11-05T11:10:29.440Z,61.65
2022-11-05T11:12:58.606Z,61.60
2022-11-05T11:15:33.048Z,60.89
2022-11-05T11:18:24.499Z,60.98
2022-11-05T11:20:53.120Z,60.56
2022-11-05T11:23:21.865Z,60.38
2022-11-05T11:25:57.946Z,60.39
2022-11-05T11:28:30.633Z,60.88
2022-11-05T11:31:12.363Z,60.76
2022-11-05T11:33:43.091Z,60.89
2022-11-05T11:36:16.261Z,60.90
2022-11-05T11:38:44.912Z,61.24
2022-11-05T11:41:34.596Z,61.07
2022-11-05T11:44:05.305Z,60.51
2022-11-05T11:46:35.875Z,60.88
2022-11-05T11:49:04.928Z,60.70
2022-11-05T11:51:37.327Z,60.80
2022-11-05T11:54:06.417Z,61.55
2022-11-05T11:56:46.968Z,60.55
2022-11-05T11:59:46.915Z,61.09
2022-11-05T12:03:00.531Z,60.94
2022-11-05T12:05:40.519Z,61.49
2022-11-05T12:08:24.178Z,60.63
2022-11-05T12:11:00.798Z,60.75
2022-11-05T12:14:00.817Z,60.92
2022-11-05T12:16:46.096Z,60.57
2022-11-05T12:19:26.428Z,61.18
2022-11-05T12:22:03.043Z,60.93
2022-11-05T12:24:57.416Z,60.73
2022-11-05T12:27:37.426Z,60.67
2022-11-05T13:14:14.157Z,60.48
2022-11-05T13:16:47.176Z,60.74
2022-11-05T13:19:22.654Z,61.22
2022-11-05T13:21:55.894Z,60.92
2022-11-05T13:24:30.722Z,60.46
2022-11-05T13:27:43.211Z,60.59
2022-11-05T14:21:00.868Z,60.90
2022-11-05T14:23:55.121Z,61.12
2022-11-05T14:29:38.052Z,61.12
2022-11-05T14:36:12.370Z,61.78
2022-11-05T14:46:41.602Z,60.49
2022-11-05T14:49:21.589Z,60.93
2022-11-05T14:52:00.937Z,61.28
2022-11-05T14:54:38.721Z,60.98
2022-11-05T14:57:07.307Z,60.84
2022-11-05T15:29:27.648Z,61.16
2022-11-05T15:50:46.178Z,61.38
2022-11-05T15:53:56.576Z,61.90
2022-11-05T15:56:35.786Z,61.54
2022-11-05T15:59:06.775Z,60.63
2022-11-05T16:01:37.773Z,62.83
2022-11-05T16:04:16.775Z,60.98
2022-11-05T16:12:30.432Z,60.99
2022-11-05T16:15:05.877Z,61.39
2022-11-05T16:17:39.487Z,60.87
2022-11-05T16:20:20.471Z,60.52
2022-11-05T16:22:54.375Z,60.61
2022-11-05T16:25:35.885Z,61.32
2022-11-05T16:28:11.617Z,61.04
2022-11-05T16:30:41.605Z,61.51
2022-11-05T16:33:15.164Z,61.62
2022-11-05T16:35:49.758Z,61.12
2022-11-05T16:38:19.250Z,61.54
2022-11-05T16:40:47.727Z,61.13
2022-11-05T16:43:25.063Z,61.66
2022-11-05T16:45:55.780Z,61.44
2022-11-05T16:48:27.062Z,61.58
2022-11-05T16:50:55.818Z,61.37
2022-11-05T16:53:27.152Z,61.10
2022-11-05T16:55:55.992Z,61.58
2022-11-05T16:58:27.768Z,61.37
2022-11-05T17:01:01.731Z,61.79
2022-11-05T17:03:35.694Z,61.09
2022-11-05T17:06:07.331Z,61.64
2022-11-05T17:08:37.133Z,61.84
2022-11-05T17:11:08.750Z,61.61
2022-11-05T17:13:49.006Z,61.70
2022-11-05T17:16:27.090Z,61.99
2022-11-05T17:19:34.705Z,61.22
2022-11-05T17:22:06.164Z,61.72
2022-11-05T17:24:36.702Z,61.43
2022-11-05T17:27:07.923Z,61.54
2022-11-05T17:29:52.563Z,61.82
2022-11-05T17:32:25.402Z,61.42
2022-11-05T17:34:57.267Z,61.75
2022-11-05T17:37:32.797Z,61.70
2022-11-05T17:40:01.409Z,61.53
2022-11-05T17:42:34.040Z,62.08
2022-11-05T17:45:17.266Z,61.95
2022-11-05T17:47:54.190Z,61.82
2022-11-05T17:53:57.026Z,62.08
2022-11-05T17:59:56.831Z,62.31
